createdAt,value
2022-12-13T00:01:29.495Z,100721.47
2022-12-13T00:03:59.185Z,100719.25
2022-12-13T00:06:27.457Z,100721.94
2022-12-13T00:08:55.648Z,100722.44
2022-12-13T00:11:23.521Z,100712.97
2022-12-13T00:13:52.955Z,100718.75
2022-12-13T00:16:23.812Z,100722.22
2022-12-13T00:18:53.993Z,100708.56
2022-12-13T00:21:22.880Z,100711.53
2022-12-13T00:23:51.746Z,100707.97
2022-12-13T00:26:22.303Z,100699.84
2022-12-13T00:28:52.923Z,100698.31
2022-12-13T00:34:11.766Z,100703.66
2022-12-13T00:36:39.543Z,100695.78
2022-12-13T00:39:07.422Z,100688.88
2022-12-13T00:41:37.222Z,100685.59
2022-12-13T00:44:06.755Z,100688.88
2022-12-13T00:46:34.587Z,100686.81
2022-12-13T00:49:02.832Z,100680.63
2022-12-13T00:51:32.218Z,100688.56
2022-12-13T00:54:00.950Z,100686.38
2022-12-13T00:56:30.264Z,100683.34
2022-12-13T00:58:58.539Z,100681.25
2022-12-13T01:01:28.971Z,100680.53
2022-12-13T01:03:58.510Z,100688.94
2022-12-13T01:06:29.674Z,100680.44
2022-12-13T01:08:57.599Z,100684.38
2022-12-13T01:11:26.306Z,100681.38
2022-12-13T01:13:54.074Z,100697.03
2022-12-13T01:16:22.084Z,100691.47
2022-12-13T01:18:51.337Z,100689.50
2022-12-13T01:21:20.744Z,100686.66
2022-12-13T01:23:50.758Z,100690.84
2022-12-13T01:26:21.007Z,100695.13
2022-12-13T01:28:49.341Z,100678.00
2022-12-13T01:31:20.230Z,100677.09
2022-12-13T01:33:48.184Z,100680.31
2022-12-13T01:36:19.184Z,100676.84
2022-12-13T01:38:47.128Z,100678.41
2022-12-13T01:41:17.796Z,100679.53
2022-12-13T01:43:55.757Z,100687.09
2022-12-13T01:46:23.937Z,100684.66
2022-12-13T01:48:56.668Z,100684.69
2022-12-13T01:51:29.998Z,100675.31
2022-12-13T01:53:59.384Z,100669.88
2022-12-13T01:56:30.783Z,100670.09
2022-12-13T01:58:59.160Z,100675.44
2022-12-13T02:01:27.228Z,100665.31
2022-12-13T02:03:55.305Z,100658.91
2022-12-13T02:06:30.862Z,100659.34
2022-12-13T02:08:59.130Z,100663.41
2022-12-13T02:11:28.382Z,100664.03
2022-12-13T02:13:56.209Z,100656.59
2022-12-13T02:16:35.088Z,100663.84
2022-12-13T02:19:22.975Z,100660.97
2022-12-13T02:21:59.924Z,100663.88
2022-12-13T02:24:53.826Z,100665.94
2022-12-13T02:27:42.647Z,100662.94
2022-12-13T02:30:24.500Z,100666.28
2022-12-13T02:33:27.424Z,100664.56
2022-12-13T02:36:05.761Z,100660.06
2022-12-13T02:38:38.514Z,100650.44
2022-12-13T02:41:15.876Z,100650.28
2022-12-13T02:43:48.407Z,100649.38
2022-12-13T02:46:18.908Z,100655.34
2022-12-13T02:48:47.941Z,100652.38
2022-12-13T02:51:16.821Z,100656.81
2022-12-13T02:53:45.027Z,100653.25
2022-12-13T02:56:13.735Z,100650.31
2022-12-13T02:58:44.036Z,100653.00
2022-12-13T03:01:40.400Z,100644.56
2022-12-13T03:04:14.460Z,100647.31
2022-12-13T03:06:49.801Z,100645.94
2022-12-13T03:09:29.411Z,100650.03
2022-12-13T03:12:27.031Z,100648.59
2022-12-13T03:14:59.708Z,100643.69
2022-12-13T03:17:30.230Z,100655.47
2022-12-13T03:19:58.216Z,100651.63
2022-12-13T03:22:26.001Z,100642.31
2022-12-13T03:24:53.893Z,100646.56
2022-12-13T03:27:21.789Z,100642.63
2022-12-13T03:29:49.554Z,100640.06
2022-12-13T03:32:17.418Z,100634.88
2022-12-13T03:34:49.656Z,100638.94
2022-12-13T03:37:20.086Z,100635.06
2022-12-13T03:39:48.005Z,100633.22
2022-12-13T03:42:16.201Z,100635.22
2022-12-13T03:44:44.055Z,100629.09
2022-12-13T03:47:11.927Z,100635.56
2022-12-13T03:49:39.722Z,100631.38
2022-12-13T03:52:08.883Z,100634.72
2022-12-13T03:54:36.741Z,100626.50
2022-12-13T03:57:05.916Z,100627.31
2022-12-13T03:59:33.751Z,100616.38
2022-12-13T04:02:01.545Z,100614.59
2022-12-13T04:04:29.663Z,100618.84
2022-12-13T04:06:57.486Z,100624.88
2022-12-13T04:09:26.782Z,100620.44
2022-12-13T04:12:11.918Z,100626.06
2022-12-13T04:14:39.803Z,100617.78
2022-12-13T04:17:07.653Z,100619.16
2022-12-13T04:19:35.453Z,100619.59
2022-12-13T04:22:03.257Z,100628.06
2022-12-13T04:24:32.870Z,100623.38
2022-12-13T04:27:01.887Z,100626.56
2022-12-13T04:29:34.334Z,100629.53
2022-12-13T04:32:03.239Z,100631.06
2022-12-13T04:34:36.936Z,100628.09
2022-12-13T04:37:05.828Z,100615.47
2022-12-13T04:39:35.031Z,100622.78
2022-12-13T04:42:02.950Z,100628.97
2022-12-13T04:44:36.596Z,100626.53
2022-12-13T04:47:05.256Z,100624.03
2022-12-13T04:49:33.763Z,100619.81
2022-12-13T04:52:02.177Z,100637.50
2022-12-13T04:54:36.305Z,100624.50
2022-12-13T04:57:08.493Z,100636.72
2022-12-13T04:59:37.052Z,100633.66
2022-12-13T05:02:05.724Z,100630.03
2022-12-13T05:04:34.308Z,100635.88
2022-12-13T05:07:02.221Z,100639.28
2022-12-13T05:09:30.285Z,100631.88
2022-12-13T05:12:01.362Z,100633.56
2022-12-13T05:14:32.029Z,100631.72
2022-12-13T05:17:00.235Z,100622.38
2022-12-13T05:19:31.124Z,100629.59
2022-12-13T05:22:01.680Z,100629.09
2022-12-13T05:24:30.790Z,100630.75
2022-12-13T05:26:58.732Z,100629.22
2022-12-13T05:29:27.509Z,100630.41
2022-12-13T05:31:56.771Z,100627.25
2022-12-13T05:34:24.576Z,100624.41
2022-12-13T05:36:52.643Z,100632.22
2022-12-13T05:39:27.982Z,100624.84
2022-12-13T05:42:01.829Z,100615.50
2022-12-13T05:44:31.654Z,100614.66
2022-12-13T05:47:02.236Z,100623.56
2022-12-13T05:49:32.014Z,100622.66
2022-12-13T05:52:00.037Z,100618.09
2022-12-13T05:54:27.838Z,100619.78
2022-12-13T05:56:55.867Z,100621.63
2022-12-13T05:59:23.624Z,100627.34
2022-12-13T06:01:53.977Z,100625.09
2022-12-13T06:04:23.569Z,100618.03
2022-12-13T06:06:52.163Z,100631.25
2022-12-13T06:09:20.278Z,100623.94
2022-12-13T06:11:48.419Z,100619.38
2022-12-13T06:14:21.513Z,100626.09
2022-12-13T06:16:51.500Z,100631.44
2022-12-13T06:19:19.620Z,100633.97
2022-12-13T06:21:48.839Z,100632.56
2022-12-13T06:24:17.805Z,100634.69
2022-12-13T06:26:46.357Z,100638.38
2022-12-13T06:29:23.167Z,100642.69
2022-12-13T06:32:01.079Z,100641.31
2022-12-13T06:34:31.554Z,100633.16
2022-12-13T06:37:00.981Z,100632.03
2022-12-13T06:39:32.910Z,100636.25
2022-12-13T06:42:02.921Z,100645.28
2022-12-13T06:44:30.697Z,100645.00
2022-12-13T06:47:11.551Z,100654.75
2022-12-13T06:49:42.457Z,100660.72
2022-12-13T06:52:13.014Z,100662.16
2022-12-13T06:54:41.587Z,100670.94
2022-12-13T06:57:09.639Z,100667.38
2022-12-13T06:59:37.871Z,100665.72
2022-12-13T07:02:06.665Z,100671.78
2022-12-13T07:04:52.421Z,100669.78
2022-12-13T07:07:21.740Z,100666.41
2022-12-13T07:09:49.541Z,100665.88
2022-12-13T07:12:17.338Z,100664.16
2022-12-13T07:14:45.191Z,100671.31
2022-12-13T07:17:13.001Z,100669.97
2022-12-13T07:20:01.337Z,100674.31
2022-12-13T07:22:34.658Z,100675.03
2022-12-13T07:25:04.868Z,100676.91
2022-12-13T07:27:32.875Z,100675.03
2022-12-13T07:30:00.787Z,100680.69
2022-12-13T07:32:28.633Z,100678.41
2022-12-13T07:34:56.537Z,100681.53
2022-12-13T07:37:29.296Z,100683.84
2022-12-13T07:40:04.080Z,100679.66
2022-12-13T07:42:32.817Z,100681.03
2022-12-13T07:45:00.673Z,100687.06
2022-12-13T07:47:30.480Z,100683.13
2022-12-13T07:49:58.655Z,100689.97
2022-12-13T07:52:26.439Z,100679.72
2022-12-13T07:54:54.298Z,100688.25
2022-12-13T07:57:23.516Z,100693.94
2022-12-13T07:59:51.290Z,100700.16
2022-12-13T08:02:19.158Z,100688.38
2022-12-13T08:04:47.065Z,100694.59
2022-12-13T08:07:25.310Z,100702.09
2022-12-13T08:09:53.482Z,100703.25
2022-12-13T08:12:22.716Z,100701.56
2022-12-13T08:14:53.167Z,100704.28
2022-12-13T08:17:22.174Z,100699.41
2022-12-13T08:19:49.943Z,100701.13
2022-12-13T08:22:24.285Z,100706.16
2022-12-13T08:24:52.448Z,100702.47
2022-12-13T08:27:20.267Z,100710.41
2022-12-13T08:29:48.340Z,100706.66
2022-12-13T08:32:17.793Z,100704.91
2022-12-13T08:34:46.528Z,100706.47
2022-12-13T08:37:14.502Z,100706.25
2022-12-13T08:39:42.454Z,100700.22
2022-12-13T08:42:15.866Z,100707.84
2022-12-13T08:44:46.816Z,100719.81
2022-12-13T08:47:24.367Z,100716.13
2022-12-13T08:50:01.397Z,100723.19
2022-12-13T08:52:31.949Z,100727.41
2022-12-13T08:55:07.521Z,100729.16
2022-12-13T08:57:36.780Z,100731.78
2022-12-13T09:00:05.327Z,100728.81
2022-12-13T09:02:38.065Z,100730.91
2022-12-13T09:05:09.724Z,100723.38
2022-12-13T09:07:39.542Z,100725.75
2022-12-13T09:10:25.478Z,100724.75
2022-12-13T09:13:01.337Z,100722.41
2022-12-13T09:15:34.374Z,100723.25
2022-12-13T09:18:04.509Z,100725.88
2022-12-13T09:20:41.102Z,100731.78
2022-12-13T09:23:14.063Z,100725.09
2022-12-13T09:26:05.969Z,100728.97
2022-12-13T09:28:35.027Z,100733.66
2022-12-13T09:31:03.620Z,100731.03
2022-12-13T09:33:31.548Z,100723.34
2022-12-13T09:36:01.339Z,100728.50
2022-12-13T09:38:29.708Z,100727.59
2022-12-13T09:40:59.561Z,100728.53
2022-12-13T09:43:33.423Z,100725.09
2022-12-13T09:46:12.992Z,100728.34
2022-12-13T09:48:52.182Z,100715.63
2022-12-13T09:51:28.800Z,100709.69
2022-12-13T09:54:12.252Z,100721.69
2022-12-13T09:56:40.148Z,100718.25
2022-12-13T09:59:13.976Z,100719.94
2022-12-13T10:01:41.963Z,100716.44
2022-12-13T10:04:14.597Z,100708.84
2022-12-13T10:06:43.770Z,100716.47
2022-12-13T10:09:14.171Z,100721.66
2022-12-13T10:11:50.673Z,100718.22
2022-12-13T10:14:23.036Z,100720.72
2022-12-13T10:16:53.264Z,100721.59
2022-12-13T10:19:29.520Z,100721.66
2022-12-13T10:22:01.299Z,100729.38
2022-12-13T10:24:37.090Z,100715.66
2022-12-13T10:27:12.900Z,100717.41
2022-12-13T10:30:02.624Z,100715.13
2022-12-13T10:32:37.906Z,100707.69
2022-12-13T10:35:17.886Z,100705.38
2022-12-13T10:37:47.010Z,100704.47
2022-12-13T10:40:32.371Z,100703.69
2022-12-13T10:43:14.595Z,100701.09
2022-12-13T10:45:43.568Z,100700.13
2022-12-13T10:48:21.007Z,100702.81
2022-12-13T10:50:58.758Z,100692.16
2022-12-13T10:53:31.326Z,100695.97
2022-12-13T10:56:02.258Z,100697.28
2022-12-13T10:58:39.323Z,100703.53
2022-12-13T11:01:13.037Z,100692.53
2022-12-13T11:03:41.216Z,100704.44
2022-12-13T11:06:14.362Z,100691.69
2022-12-13T11:08:43.616Z,100695.97
2022-12-13T11:11:12.394Z,100681.66
2022-12-13T11:13:43.148Z,100679.66
2022-12-13T11:16:22.154Z,100680.38
2022-12-13T11:18:53.623Z,100674.72
2022-12-13T11:21:25.650Z,100681.41
2022-12-13T11:23:55.921Z,100686.44
2022-12-13T11:26:29.970Z,100678.84
2022-12-13T11:29:10.403Z,100685.47
2022-12-13T11:31:46.974Z,100672.16
2022-12-13T11:34:21.461Z,100680.28
2022-12-13T11:36:53.314Z,100680.44
2022-12-13T11:39:29.227Z,100674.00
2022-12-13T11:42:00.375Z,100676.59
2022-12-13T11:44:34.069Z,100671.38
2022-12-13T11:47:02.415Z,100677.75
2022-12-13T11:49:38.463Z,100681.41
2022-12-13T11:52:10.975Z,100676.75
2022-12-13T11:54:48.678Z,100674.47
2022-12-13T11:57:26.378Z,100673.16
2022-12-13T12:00:02.468Z,100681.28
2022-12-13T12:02:35.121Z,100683.06
2022-12-13T12:05:06.059Z,100677.13
2022-12-13T12:07:38.324Z,100684.66
2022-12-13T12:10:19.129Z,100682.25
2022-12-13T12:12:50.584Z,100690.81
2022-12-13T12:15:26.681Z,100682.72
2022-12-13T12:17:55.508Z,100686.34
2022-12-13T12:20:28.580Z,100685.59
2022-12-13T12:23:03.148Z,100689.84
2022-12-13T12:25:38.952Z,100679.75
2022-12-13T12:28:18.195Z,100680.63
2022-12-13T12:30:52.423Z,100677.53
2022-12-13T12:33:26.119Z,100679.31
2022-12-13T12:36:05.397Z,100678.19
2022-12-13T12:38:49.585Z,100677.53
2022-12-13T12:41:29.923Z,100682.84
2022-12-13T12:44:08.651Z,100677.56
2022-12-13T12:47:09.201Z,100676.84
2022-12-13T12:50:01.911Z,100677.84
2022-12-13T12:52:38.855Z,100687.25
2022-12-13T12:55:13.019Z,100680.16
2022-12-13T12:57:49.200Z,100676.59
2022-12-13T13:00:19.094Z,100677.34
2022-12-13T13:02:51.203Z,100684.59
2022-12-13T13:05:23.976Z,100683.00
2022-12-13T13:07:58.554Z,100689.59
2022-12-13T13:10:27.523Z,100687.00
2022-12-13T13:13:11.249Z,100696.56
2022-12-13T13:15:57.607Z,100691.69
2022-12-13T13:18:50.143Z,100693.38
2022-12-13T13:21:48.241Z,100690.84
2022-12-13T13:24:22.449Z,100692.38
2022-12-13T13:26:52.649Z,100692.53
2022-12-13T13:29:43.897Z,100689.13
2022-12-13T13:32:30.443Z,100680.56
2022-12-13T13:35:54.352Z,100687.34
2022-12-13T13:38:44.944Z,100683.63
2022-12-13T13:41:40.984Z,100684.47
2022-12-13T13:44:34.254Z,100684.97
2022-12-13T13:47:13.549Z,100689.94
2022-12-13T13:49:48.536Z,100692.28
2022-12-13T13:52:27.402Z,100691.91
2022-12-13T13:55:29.685Z,100687.66
2022-12-13T13:58:30.916Z,100687.84
2022-12-13T14:01:34.294Z,100681.00
2022-12-13T14:04:38.856Z,100692.44
2022-12-13T14:07:27.191Z,100681.19
2022-12-13T14:10:06.497Z,100676.53
2022-12-13T14:13:13.896Z,100665.31
2022-12-13T14:16:05.337Z,100669.63
2022-12-13T14:19:09.014Z,100673.81
2022-12-13T14:22:00.238Z,100676.53
2022-12-13T14:24:40.007Z,100671.34
2022-12-13T14:27:18.436Z,100673.00
2022-12-13T14:29:48.308Z,100673.88
2022-12-13T14:32:28.616Z,100677.28
2022-12-13T14:34:56.930Z,100680.78
2022-12-13T14:37:30.474Z,100680.66
2022-12-13T14:39:58.892Z,100678.16
2022-12-13T14:42:29.723Z,100688.25
2022-12-13T14:45:14.343Z,100687.28
2022-12-13T14:47:42.995Z,100689.72
2022-12-13T14:50:12.994Z,100686.19
2022-12-13T14:52:42.233Z,100690.53
2022-12-13T14:55:24.974Z,100683.50
2022-12-13T14:57:54.946Z,100686.06
2022-12-13T15:00:28.176Z,100680.94
2022-12-13T15:02:59.787Z,100685.25
2022-12-13T15:05:29.510Z,100676.63
2022-12-13T15:07:58.918Z,100673.25
2022-12-13T15:10:36.159Z,100674.13
2022-12-13T15:13:04.625Z,100671.59
2022-12-13T15:15:35.927Z,100669.94
2022-12-13T15:18:08.866Z,100678.50
2022-12-13T15:20:42.235Z,100682.81
2022-12-13T15:23:26.153Z,100683.72
2022-12-13T15:26:00.656Z,100688.88
2022-12-13T15:28:32.083Z,100689.72
2022-12-13T15:31:00.910Z,100693.22
2022-12-13T15:33:36.568Z,100688.09
2022-12-13T15:36:10.711Z,100683.00
2022-12-13T15:38:44.952Z,100680.44
2022-12-13T15:41:18.907Z,100683.03
2022-12-13T15:43:48.654Z,100685.63
2022-12-13T15:46:25.273Z,100689.09
2022-12-13T15:48:54.139Z,100694.28
2022-12-13T15:51:29.576Z,100694.28
2022-12-13T15:54:08.241Z,100690.84
2022-12-13T15:56:37.875Z,100694.28
2022-12-13T15:59:07.764Z,100691.72
2022-12-13T16:01:37.394Z,100691.66
2022-12-13T16:04:06.578Z,100695.09
2022-12-13T16:06:34.913Z,100689.94
2022-12-13T16:09:04.838Z,100692.53
2022-12-13T16:11:36.184Z,100688.22
2022-12-13T16:14:34.918Z,100692.47
2022-12-13T16:17:08.633Z,100685.59
2022-12-13T16:19:36.798Z,100687.25
2022-12-13T16:22:08.357Z,100683.78
2022-12-13T16:24:37.091Z,100676.94
2022-12-13T16:27:08.681Z,100679.44
2022-12-13T16:29:37.403Z,100676.88
2022-12-13T16:32:08.533Z,100675.16
2022-12-13T16:34:37.091Z,100677.63
2022-12-13T16:37:08.736Z,100680.13
2022-12-13T16:39:52.770Z,100678.53
2022-12-13T16:42:25.785Z,100680.41
2022-12-13T16:45:11.276Z,100677.06
2022-12-13T16:47:48.328Z,100676.16
2022-12-13T16:50:18.473Z,100678.69
2022-12-13T16:52:47.161Z,100676.88
2022-12-13T16:55:15.125Z,100675.16
2022-12-13T16:57:44.381Z,100681.13
2022-12-13T17:00:13.829Z,100676.91
2022-12-13T17:02:42.057Z,100676.13
2022-12-13T17:05:10.320Z,100681.19
2022-12-13T17:07:38.181Z,100675.16
2022-12-13T17:10:07.786Z,100681.06
2022-12-13T17:12:35.770Z,100677.63
2022-12-13T17:15:05.570Z,100678.41
2022-12-13T17:17:34.207Z,100678.38
2022-12-13T17:20:02.143Z,100672.28
2022-12-13T17:22:30.063Z,100668.88
2022-12-13T17:24:57.832Z,100662.03
2022-12-13T17:27:25.830Z,100664.53
2022-12-13T17:29:53.660Z,100671.22
2022-12-13T17:32:23.056Z,100671.22
2022-12-13T17:34:52.071Z,100668.41
2022-12-13T17:37:20.794Z,100667.66
2022-12-13T17:39:48.715Z,100662.66
2022-12-13T17:42:16.791Z,100663.56
2022-12-13T17:44:44.590Z,100660.00
2022-12-13T17:47:13.170Z,100665.06
2022-12-13T17:49:42.390Z,100662.66
2022-12-13T17:52:10.443Z,100666.69
2022-12-13T17:54:38.273Z,100666.81
2022-12-13T17:57:06.338Z,100666.75
2022-12-13T17:59:37.029Z,100665.53
2022-12-13T18:02:11.199Z,100663.84
2022-12-13T18:04:39.083Z,100665.78
2022-12-13T18:07:08.365Z,100664.78
2022-12-13T18:09:36.291Z,100665.59
2022-12-13T18:12:04.270Z,100664.25
2022-12-13T18:14:32.052Z,100665.75
2022-12-13T18:16:59.934Z,100662.28
2022-12-13T18:19:30.214Z,100658.25
2022-12-13T18:21:58.152Z,100657.84
2022-12-13T18:24:27.508Z,100654.53
2022-12-13T18:26:55.598Z,100652.88
2022-12-13T18:29:23.438Z,100646.94
2022-12-13T18:31:51.275Z,100656.84
2022-12-13T18:34:19.111Z,100645.88
2022-12-13T18:36:46.983Z,100653.56
2022-12-13T18:39:14.943Z,100645.16
2022-12-13T18:41:44.190Z,100646.13
2022-12-13T18:44:13.520Z,100644.63
2022-12-13T18:46:45.865Z,100648.91
2022-12-13T18:49:14.445Z,100651.22
2022-12-13T18:51:42.292Z,100666.38
2022-12-13T18:54:10.192Z,100662.72
2022-12-13T18:56:38.024Z,100660.00
2022-12-13T18:59:07.239Z,100659.09
2022-12-13T19:01:35.727Z,100655.72
2022-12-13T19:04:03.813Z,100657.91
2022-12-13T19:06:31.641Z,100662.38
2022-12-13T19:08:59.555Z,100658.88
2022-12-13T19:11:28.542Z,100657.97
2022-12-13T19:13:56.724Z,100658.91
2022-12-13T19:16:27.087Z,100664.81
2022-12-13T19:18:55.119Z,100663.78
2022-12-13T19:21:23.497Z,100659.50
2022-12-13T19:23:57.085Z,100653.50
2022-12-13T19:26:26.041Z,100665.81
2022-12-13T19:28:53.888Z,100663.41
2022-12-13T19:31:26.928Z,100652.25
2022-12-13T19:34:00.292Z,100658.09
2022-12-13T19:36:28.354Z,100654.81
2022-12-13T19:38:56.878Z,100654.94
2022-12-13T19:41:25.214Z,100665.69
2022-12-13T19:43:54.026Z,100661.41
2022-12-13T19:46:22.706Z,100660.72
2022-12-13T19:48:50.898Z,100662.06
2022-12-13T19:51:21.324Z,100655.28
2022-12-13T19:53:49.626Z,100664.56
2022-12-13T19:56:18.923Z,100658.09
2022-12-13T19:58:48.205Z,100657.66
2022-12-13T20:01:17.279Z,100658.09
2022-12-13T20:03:46.286Z,100659.16
2022-12-13T20:06:15.952Z,100662.66
2022-12-13T20:08:45.587Z,100660.09
2022-12-13T20:11:14.847Z,100650.81
2022-12-13T20:13:42.834Z,100659.34
2022-12-13T20:16:16.216Z,100651.56
2022-12-13T20:18:44.083Z,100648.91
2022-12-13T20:21:14.484Z,100647.88
2022-12-13T20:23:48.659Z,100648.81
2022-12-13T20:26:19.629Z,100649.03
2022-12-13T20:28:48.036Z,100649.75
2022-12-13T20:31:18.059Z,100644.69
2022-12-13T20:33:45.941Z,100642.84
2022-12-13T20:36:25.634Z,100641.16
2022-12-13T20:38:55.585Z,100642.81
2022-12-13T20:41:26.417Z,100643.53
2022-12-13T20:43:55.599Z,100640.16
2022-12-13T20:46:24.063Z,100638.31
2022-12-13T20:48:52.293Z,100635.66
2022-12-13T20:51:21.970Z,100632.97
2022-12-13T20:53:50.982Z,100637.31
2022-12-13T20:56:20.193Z,100634.75
2022-12-13T20:58:50.358Z,100625.19
2022-12-13T21:01:20.185Z,100630.41
2022-12-13T21:03:48.464Z,100632.00
2022-12-13T21:06:16.708Z,100629.41
2022-12-13T21:08:54.366Z,100624.88
2022-12-13T21:11:28.764Z,100624.91
2022-12-13T21:14:05.360Z,100617.28
2022-12-13T21:16:38.449Z,100619.38
2022-12-13T21:19:08.510Z,100621.91
2022-12-13T21:21:36.685Z,100608.47
2022-12-13T21:24:05.209Z,100600.00
2022-12-13T21:26:35.620Z,100601.63
2022-12-13T21:29:07.423Z,100601.56
2022-12-13T21:31:35.926Z,100595.25
2022-12-13T21:34:05.267Z,100591.56
2022-12-13T21:36:34.685Z,100590.63
2022-12-13T21:39:04.694Z,100594.78
2022-12-13T21:41:33.260Z,100599.69
2022-12-13T21:44:01.188Z,100599.53
2022-12-13T21:47:09.666Z,100598.56
2022-12-13T21:49:18.852Z,100593.13
2022-12-13T21:51:48.428Z,100595.81
2022-12-13T21:54:17.814Z,100588.25
2022-12-13T21:57:03.193Z,100580.84
2022-12-13T21:59:31.641Z,100590.59
2022-12-13T22:02:15.610Z,100591.16
2022-12-13T22:04:45.317Z,100578.88
2022-12-13T22:07:14.470Z,100584.16
2022-12-13T22:09:42.462Z,100582.41
2022-12-13T22:12:12.123Z,100578.97
2022-12-13T22:14:39.925Z,100580.56
2022-12-13T22:17:09.166Z,100575.34
2022-12-13T22:19:36.993Z,100569.94
2022-12-13T22:22:04.889Z,100569.22
2022-12-13T22:24:32.761Z,100572.41
2022-12-13T22:27:00.646Z,100560.44
2022-12-13T22:29:28.830Z,100558.78
2022-12-13T22:31:56.661Z,100551.75
2022-12-13T22:34:25.864Z,100549.97
2022-12-13T22:36:53.972Z,100549.25
2022-12-13T22:39:22.869Z,100548.41
2022-12-13T22:41:52.070Z,100538.13
2022-12-13T22:44:20.923Z,100541.63
2022-12-13T22:46:48.780Z,100541.00
2022-12-13T22:49:16.705Z,100532.72
2022-12-13T22:51:45.877Z,100533.25
2022-12-13T22:54:13.688Z,100529.81
2022-12-13T22:56:41.480Z,100521.22
2022-12-13T22:59:09.342Z,100519.53
2022-12-13T23:01:38.906Z,100521.19
2022-12-13T23:04:07.638Z,100517.78
2022-12-13T23:06:37.550Z,100519.34
2022-12-13T23:09:09.139Z,100522.72
2022-12-13T23:11:54.737Z,100519.19
2022-12-13T23:14:29.411Z,100510.03
2022-12-13T23:16:57.428Z,100507.50
2022-12-13T23:19:41.616Z,100503.28
2022-12-13T23:22:13.758Z,100498.16
2022-12-13T23:24:42.973Z,100498.38
2022-12-13T23:27:10.936Z,100497.66
2022-12-13T23:29:39.163Z,100486.63
2022-12-13T23:32:07.002Z,100487.47
2022-12-13T23:34:34.989Z,100491.63
2022-12-13T23:37:02.885Z,100486.63
2022-12-13T23:39:30.718Z,100483.25
2022-12-13T23:41:59.917Z,100493.28
2022-12-13T23:44:27.720Z,100489.06
2022-12-13T23:46:55.558Z,100483.00
2022-12-13T23:49:23.457Z,100490.66
2022-12-13T23:51:51.296Z,100479.53
2022-12-13T23:54:20.159Z,100483.00
2022-12-13T23:56:48.190Z,100488.19
2022-12-13T23:59:18.886Z,100481.47
